• Join FlightAware (Why Join?)
  • Login
  • US Flag 
05:39PM EDT


 

Airport Tracker/Info


-or-


 

Live Flight TrackerFlight Track Log ✈ RPA3392 ✈ 26-Jun-2013 ✈ KMSP - KDCA

Flight Track Log - Related Links

Times and Time Zones

All times are in EDT time to prevent confusion due to time zone crossing. See the RPA3392 flight status page for this flight to view local times or setup timezone preferences in your user account.

Time Position Orientation Groundspeed Altitude Reporting Facility
EDT Latitude Longitude Course Direction KTS MPH feet Rate Location/Type
07:12PM 44.9000 -93.2333 117° Southeast 155 178 2,100  Level Minneapolis TRACON
07:13PM 44.9408 -93.2328 North 164 189 2,800 1,740 Climbing Minneapolis Center
07:14PM 44.9961 -93.2042 20° North 228 262 5,300 2,220 Climbing Minneapolis Center
07:15PM 44.7211 -92.6370 113° Southeast  Level Estimated
07:15PM 45.0058 -93.0953 83° East 280 322 7,400  Level Minneapolis Center
07:16PM 44.6604 -92.5058 123° Southeast  Level FlightAware Approximate
07:16PM 44.9700 -92.9603 111° Southeast 320 368 10,300  Level Minneapolis Center
07:17PM 44.6075 -92.3580 117° Southeast  Level FlightAware Approximate
07:17PM 44.9097 -92.8508 128° Southeast 349 402 12,100  Level Minneapolis Center
07:18PM 44.8467 -92.7350 127° Southeast 368 423 14,400 2,040 Climbing Minneapolis Center
07:19PM 44.7819 -92.6164 128° Southeast 377 434 16,400 1,920 Climbing Minneapolis Center
07:20PM 44.7156 -92.4967 128° Southeast 390 449 18,400 1,800 Climbing Minneapolis Center
07:21PM 44.6469 -92.3739 128° Southeast 398 458 20,200 1,500 Climbing Minneapolis Center
07:22PM 44.5764 -92.2464 128° Southeast 409 471 21,600 1,500 Climbing Minneapolis Center
07:23PM 44.4908 -92.0856 127° Southeast 427 491 23,400 1,500 Climbing Minneapolis Center
07:24PM 44.4200 -91.9481 126° Southeast 435 501 24,700 1,200 Climbing Minneapolis Center
07:25PM 44.3508 -91.8044 124° Southeast 444 511 26,000 1,140 Climbing Minneapolis Center
07:26PM 44.2911 -91.6461 118° Southeast 458 527 27,100 960 Climbing Minneapolis Center
07:27PM 44.2308 -91.4864 118° Southeast 465 535 28,100 900 Climbing Minneapolis Center
07:28PM 44.1689 -91.3231 118° Southeast 473 544 29,000 420 Climbing Minneapolis Center
07:29PM 44.1136 -91.1311 112° Southeast 479 551 29,000  Level Minneapolis Center
07:30PM 44.0775 -90.9525 106° East 481 554 29,000 120 Level Minneapolis Center
07:31PM 44.0411 -90.7758 106° East 480 552 29,300 720 Climbing Minneapolis Center
07:32PM 43.9944 -90.5578 106° East 485 558 30,600 1,680 Climbing Minneapolis Center
07:33PM 43.9572 -90.3878 107° East 477 549 32,900 1,140 Climbing Chicago Center
07:34PM 43.9222 -90.2189 106° East 449 517 33,000  Climbing Chicago Center
07:35PM 43.8847 -90.0503 107° East 457 526 33,000  Level Chicago Center
07:37PM 43.8483 -89.8819 107° East 456 525 33,000  Level Chicago Center
07:38PM 43.8042 -89.6867 107° East 455 524 33,000  Level Chicago Center
07:39PM 43.7667 -89.5181 107° East 457 526 33,000  Level Chicago Center
07:40PM 43.7297 -89.3508 107° East 456 525 33,000 60 Level Chicago Center
07:41PM 43.6919 -89.1814 107° East 460 529 33,200 540 Climbing Chicago Center
07:42PM 43.6550 -89.0178 107° East 449 517 34,200 840 Climbing Chicago Center
07:43PM 43.6119 -88.8275 107° East 446 513 35,000 360 Climbing Chicago Center
07:44PM 43.5744 -88.6636 107° East 449 517 35,000  Level Chicago Center
07:45PM 43.5383 -88.5039 107° East 451 519 35,000  Level Chicago Center
07:46PM 43.4956 -88.3211 108° East 459 528 35,000  Level Chicago Center
07:47PM 43.4556 -88.1569 109° East 451 519 35,000  Level Chicago Center
07:48PM 43.4161 -87.9944 108° East 448 516 35,000  Level Chicago Center
07:49PM 43.3775 -87.8311 108° East 449 517 35,000  Level Chicago Center
07:50PM 43.3381 -87.6692 108° East 447 514 35,000  Level Chicago Center
07:51PM 43.2922 -87.4806 108° East 446 513 35,000  Level Chicago Center
07:52PM 43.2528 -87.3200 109° East 448 516 35,000  Level Chicago Center
07:53PM 43.2125 -87.1569 109° East 452 520 35,000  Level Chicago Center
07:54PM 43.1708 -86.9919 109° East 452 520 35,000  Level Chicago Center
07:55PM 43.1317 -86.8314 108° East 456 525 35,000  Level Chicago Center
07:56PM 43.0914 -86.6719 109° East 449 517 35,000  Level Chicago Center
07:57PM 43.0428 -86.4825 109° East 443 510 35,000  Level Chicago Center
07:58PM 43.0017 -86.3256 110° East 442 509 35,000  Level Chicago Center
07:59PM 42.9603 -86.1700 110° East 443 510 35,000  Level Chicago Center
08:00PM 42.9186 -86.0133 110° East 450 518 35,000  Level Chicago Center
08:01PM 42.8725 -85.8242 108° East 450 518 35,000  Level Chicago Center
08:02PM 42.8317 -85.6656 109° East 449 517 35,000  Level Chicago Center
08:03PM 42.7892 -85.5061 110° East 449 517 35,000  Level Chicago Center
08:04PM 42.7375 -85.3547 115° Southeast 445 512 35,000  Level Chicago Center
08:06PM 42.6850 -85.2031 115° Southeast 444 511 35,000  Level Chicago Center
08:07PM 42.6203 -85.0208 116° Southeast 447 514 35,000  Level Chicago Center
08:08PM 42.5669 -84.8703 116° Southeast 443 510 35,000  Level Chicago Center
08:09PM 42.5147 -84.7178 115° Southeast 445 512 35,000  Level Chicago Center
08:10PM 42.4597 -84.5675 116° Southeast 447 514 35,000  Level Chicago Center
08:11PM 42.4044 -84.4156 116° Southeast 449 517 35,000  Level Chicago Center
08:12PM 42.3381 -84.2308 116° Southeast 455 524 35,000  Level Chicago Center
08:13PM 42.2831 -84.0778 116° Southeast 455 524 35,000  Level Chicago Center
08:14PM 42.2256 -83.9247 117° Southeast 458 527 35,000  Level Chicago Center
08:15PM 42.1694 -83.7753 117° Southeast 449 517 35,000  Level Chicago Center
08:16PM 42.1033 -83.6197 120° Southeast 449 517 35,000  Level Cleveland Center
08:17PM 42.0467 -83.4661 116° Southeast 454 522 35,000  Level Cleveland Center
08:18PM 41.9714 -83.3119 123° Southeast 454 522 35,000  Level Cleveland Center
08:19PM 41.9053 -83.1919 126° Southeast 454 522 35,000  Level Cleveland Center
08:20PM 41.8333 -83.0550 125° Southeast 454 522 35,000  Level Cleveland Center
08:21PM 41.7653 -82.9217 124° Southeast 449 517 35,000  Level Cleveland Center
08:22PM 41.6928 -82.7883 126° Southeast 444 511 35,000  Level Cleveland Center
08:23PM 41.6183 -82.6469 125° Southeast 437 503 35,000  Level Cleveland Center
08:24PM 41.5456 -82.5142 126° Southeast 442 509 35,000  Level Cleveland Center
08:25PM 41.4747 -82.3817 125° Southeast 442 509 35,000  Level Cleveland Center
08:26PM 41.4017 -82.2442 125° Southeast 447 514 35,000  Level Cleveland Center
08:27PM 41.3158 -82.1258 134° Southeast 447 514 35,000  Level Cleveland Center
08:28PM 41.2233 -82.0158 138° Southeast 447 514 35,000  Level Cleveland Center
08:29PM 41.1267 -81.9172 142° Southeast 447 514 35,000  Level Cleveland Center
08:30PM 41.0256 -81.8217 145° Southeast 452 520 35,000  Level Cleveland Center
08:31PM 40.9267 -81.7236 143° Southeast 440 506 35,000  Level Cleveland Center
08:32PM 40.8294 -81.6258 143° Southeast 440 506 35,000  Level Cleveland Center
08:33PM 40.7428 -81.5394 143° Southeast 435 501 35,000  Level Cleveland Center
08:34PM 40.6456 -81.4422 143° Southeast 435 501 35,000  Level Cleveland Center
08:35PM 40.5442 -81.3317 140° Southeast 435 501 35,000  Level Cleveland Center
08:36PM 40.4467 -81.2378 144° Southeast 430 495 35,000  Level Cleveland Center
08:37PM 40.3575 -81.1497 143° Southeast 437 503 35,000 -300 Level Cleveland Center
08:38PM 40.2683 -81.0347 135° Southeast 442 509 34,400 -780 Descending Cleveland Center
08:39PM 40.1958 -80.9039 126° Southeast 442 509 33,500 -720 Descending Cleveland Center
08:40PM 40.1233 -80.7731 126° Southeast 447 514 33,000 -300 Descending Cleveland Center
08:41PM 40.0483 -80.6372 126° Southeast 452 520 33,000  Level Cleveland Center
08:42PM 39.9733 -80.5044 126° Southeast 452 520 33,000  Level Cleveland Center
08:43PM 39.8961 -80.3694 127° Southeast 457 526 33,000 -120 Level Cleveland Center
08:44PM 39.8206 -80.2369 127° Southeast 457 526 32,800 -540 Descending Cleveland Center
08:45PM 39.7472 -80.1025 125° Southeast 457 526 32,000 -600 Descending Cleveland Center
08:47PM 39.5814 -79.8164 127° Southeast 451 519 31,000 -360 Descending Washington Center
08:48PM 39.5067 -79.6828 126° Southeast 456 525 31,000 -300 Level Washington Center
08:49PM 39.4300 -79.5494 127° Southeast 456 525 30,500 -840 Descending Washington Center
08:50PM 39.3528 -79.4164 127° Southeast 456 525 29,400 -1,020 Descending Washington Center
08:51PM 39.2758 -79.2836 127° Southeast 456 525 28,500 -1,380 Descending Washington Center
08:52PM 39.2383 -79.1422 109° East 461 531 26,700 -1,920 Descending Washington Center
08:53PM 39.2261 -78.9864 96° East 433 498 24,700 -1,920 Descending Washington Center
08:54PM 39.2114 -78.8383 97° East 426 490 22,900 -1,860 Descending Washington Center
08:55PM 39.1967 -78.6878 97° East 426 490 21,100 -1,800 Descending Washington Center
08:56PM 39.1836 -78.5478 97° East 415 478 19,300 -1,740 Descending Washington Center
08:57PM 39.1681 -78.4106 98° East 396 456 17,600 -1,500 Descending Washington Center
08:58PM 39.1439 -78.2867 104° East 378 435 16,400 -1,080 Descending Washington Center
08:59PM 39.1150 -78.1706 108° East 354 407 15,500 -960 Descending Washington Center
09:00PM 39.0861 -78.0544 108° East 342 394 14,500 -1,140 Descending Washington Center
09:01PM 39.0553 -77.9386 109° East 326 375 13,300 -1,260 Descending Washington Center
09:02PM 39.0300 -77.8361 108° East 326 375 12,100 -1,200 Descending Washington Center
09:03PM 38.9989 -77.7178 109° East 326 375 11,000 -900 Descending Washington Center
09:04PM 38.9775 -77.6289 107° East 303 349 10,400 -1,020 Descending Washington Center
09:05PM 38.9417 -77.5211 113° Southeast 288 331 9,000 -1,440 Descending Washington Center
09:06PM 38.8833 -77.4000 122° Southeast 278 320 7,100 -1,260 Descending Potomac TRACON
09:07PM 38.8500 -77.3167 117° Southeast 265 305 6,000 -540 Descending Potomac TRACON
09:09PM 38.8167 -77.2333 117° Southeast 261 300 6,000 -300 Level Potomac TRACON
09:09PM 38.7833 -77.1500 117° Southeast 253 291 5,500 -900 Descending Potomac TRACON
09:11PM 38.7167 -77.1167 159° South 221 254 4,200 -900 Descending Potomac TRACON
09:11PM 38.6833 -77.0833 142° Southeast 224 258 3,800 -540 Descending Potomac TRACON